Forside
METAR-TAF:

METAR-TAF

Lufthavne :

Stevens Point Municipal Airport

Stevens Point, Wisconsin, USA

Breddekreds: 44-32-42N, længdekreds: 089-31-49W, højde: 338 m

Aktuelle vejr

Denne rapport blev lavet for 34 minutter siden, kl. 16:55 UTC
Vind 8 kt fra vestsydvest
Temperatur 4°C
Fugtighed 56%
Tryk 1010 hPa
Sigt: 16.1 km
skyfri

METAR: KSTE 231655Z AUTO 25008KT 10SM CLR 04/M04 A2982 RMK AO2 T00401038

Tid: 11:29 (17:29 UTC)


TAF: fraværende

Vejrobservationer og prognoser fra mere end 4000 lufthavne (METAR og TAF).

De gule og røde prikker repræsenterer de meteorologiske stationer.

Flyt musen over at se navnet på stationen.

Så klik over at se vejr observationer og prognoser.

At skifte det kort: Klik på de grønne knapper med et sort kors for at zoome ind; på den grønne knap med en bindestreg for at zoome ud; eller på de grønne pile for tilstødende kort.


METAR-TAF: